Impacts TAF Board
For situational awareness. Not to be used for flight planning purposes.
IDs:

KHBG - Hattiesburg/Chain Mu, MS, US

Issued at 2332 UTC 05 Dec 2020
Updated at 0225 UTC 06 Dec 2020
Potential Impact None Slight Moderate High
Time0153Z 06/03Z 06/04Z 06/05Z 06/06Z 06/07Z 06/08Z 06/09Z 06/10Z 06/11Z 06/12Z 06/13Z 06/14Z 06/15Z>>
Type OBS PRVL PRVL PRVL PRVL PRVL PRVL PRVL PRVL PRVL PRVL PRVL PRVL PRVL
VIS 10 >6 >6 >6 >6 >6 >6 >6 >6 >6 >6 >6 >6 >6
CIG -- 250 250 250 250 250 250 250 250 250 250 250 250 250
Cover CLR OVC OVC OVC OVC OVC OVC OVC OVC OVC OVC OVC OVC OVC
FltCat VFR VFR VFR VFR VFR VFR VFR VFR VFR VFR VFR VFR VFR VFR
WX -- -- -- -- -- -- -- -- -- -- -- -- -- --
WDir 270 270 270 270 270 270 270 270 270 270 270 270 270 270
WSpd 3 3 3 3 3 3 3 3 3 3 3 3 3 3
WGst -- -- -- -- -- -- -- -- -- -- -- -- -- --
Raw TAF
KHBG 052332Z 0600/0624 27003KT P6SM OVC250
  FM062100 25005KT P6SM -RA OVC050


Raw METAR
KHBG 060153Z AUTO 27003KT 10SM CLR 11/06 A3017 RMK AO2 SLP217 T01060056
KHBG 060053Z AUTO 00000KT 10SM CLR 09/07 A3017 RMK AO2 SLP215 T00940067
KHBG 052353Z AUTO 00000KT 10SM CLR 10/07 A3015 RMK AO2 SLP210 T01000067 10156 20100 51006

METAR Board
Radar Display
Forecast Discussion
For situational awareness. Not to be used for flight planning purposes.